Time;durP1;ratioP1;P1;durP2;ratioP2;P2;SDS_P1;SDS_P2;PMS_P1;PMS_P2;Temp;Humidity;BMP_temperature;BMP_pressure;BME280_temperature;BME280_humidity;BME280_pressure;Samples;Min_cycle;Max_cycle;Signal;HPM_P1;HPM_P2
2022/08/09 00:02:07;;;;;;;7.43;4.88;;;;;;;;;;5092086;28;20059;-72
2022/08/09 00:04:34;;;;;;;5.78;4.70;;;;;;;;;;5093096;28;20024;-72
2022/08/09 00:07:00;;;;;;;6.85;4.65;;;;;;;;;;5093018;28;20019;-72
2022/08/09 00:09:27;;;;;;;10.60;4.28;;;;;;;;;;5093456;28;20026;-72
2022/08/09 00:11:53;;;;;;;7.28;4.45;;;;;;;;;;5093313;28;20034;-72
2022/08/09 00:14:22;;;;;;;5.57;3.75;;;;;;;;;;5093224;28;20032;-72
2022/08/09 00:16:48;;;;;;;6.63;3.95;;;;;;;;;;5125964;27;20046;-73
2022/08/09 00:19:15;;;;;;;9.23;3.25;;;;;;;;;;5092860;28;20032;-72
2022/08/09 00:21:41;;;;;;;6.80;4.00;;;;;;;;;;5093063;28;20032;-72
2022/08/09 00:24:07;;;;;;;6.15;4.20;;;;;;;;;;5092965;28;20452;-72
2022/08/09 00:26:34;;;;;;;7.68;4.57;;;;;;;;;;5091867;28;20125;-72
2022/08/09 00:29:01;;;;;;;10.32;5.07;;;;;;;;;;5093084;28;20023;-72
2022/08/09 00:31:27;;;;;;;6.60;5.20;;;;;;;;;;5092911;28;20076;-72
2022/08/09 00:33:54;;;;;;;9.88;6.05;;;;;;;;;;5092182;28;20027;-72
2022/08/09 00:36:21;;;;;;;7.93;5.70;;;;;;;;;;5092453;28;20036;-72
2022/08/09 00:38:47;;;;;;;9.57;6.10;;;;;;;;;;5125600;27;20482;-72
2022/08/09 00:41:14;;;;;;;10.15;6.82;;;;;;;;;;5092491;28;20055;-72
2022/08/09 00:43:41;;;;;;;11.85;7.78;;;;;;;;;;5091295;28;20024;-72
2022/08/09 00:46:08;;;;;;;13.90;7.60;;;;;;;;;;5092250;28;20046;-72
2022/08/09 00:48:35;;;;;;;9.95;7.10;;;;;;;;;;5092110;28;20420;-72
2022/08/09 00:51:03;;;;;;;11.45;6.90;;;;;;;;;;5092595;28;20024;-72
2022/08/09 00:53:30;;;;;;;11.55;6.50;;;;;;;;;;5092708;28;20023;-72
2022/08/09 00:55:57;;;;;;;11.70;6.63;;;;;;;;;;5092261;28;20038;-72
2022/08/09 00:58:23;;;;;;;12.55;7.25;;;;;;;;;;5092546;28;20035;-72
2022/08/09 01:00:54;;;;;;;13.32;7.75;;;;;;;;;;5092643;28;20035;-72
2022/08/09 01:03:41;;;;;;;15.63;9.57;;;;;;;;;;5092192;28;20042;-72
2022/08/09 01:06:11;;;;;;;14.40;8.90;;;;;;;;;;5092240;28;20050;-72
2022/08/09 01:08:44;;;;;;;13.32;9.65;;;;;;;;;;5092232;28;20016;-72
2022/08/09 01:11:23;;;;;;;15.70;9.77;;;;;;;;;;5092064;28;20436;-72
2022/08/09 01:13:55;;;;;;;17.50;10.85;;;;;;;;;;5092019;28;20486;-72
2022/08/09 01:16:24;;;;;;;20.30;12.07;;;;;;;;;;5091600;28;20036;-72
2022/08/09 01:18:52;;;;;;;20.23;12.10;;;;;;;;;;5092091;28;20020;-72
2022/08/09 01:21:18;;;;;;;21.08;12.35;;;;;;;;;;5092321;28;20038;-72
2022/08/09 01:23:48;;;;;;;17.65;12.30;;;;;;;;;;5092403;28;20020;-72
2022/08/09 01:26:34;;;;;;;20.40;13.55;;;;;;;;;;5092143;28;20032;-72
2022/08/09 01:29:01;;;;;;;19.08;13.25;;;;;;;;;;5092053;28;20028;-72
2022/08/09 01:31:29;;;;;;;16.98;12.13;;;;;;;;;;5091785;28;20020;-72
2022/08/09 01:33:58;;;;;;;19.63;13.05;;;;;;;;;;5091692;28;20429;-72
2022/08/09 01:36:26;;;;;;;22.63;13.55;;;;;;;;;;5091791;28;20038;-72
2022/08/09 01:38:52;;;;;;;19.33;12.68;;;;;;;;;;5092046;28;20027;-72
2022/08/09 01:41:23;;;;;;;20.92;13.48;;;;;;;;;;5092051;28;20032;-72
2022/08/09 01:43:50;;;;;;;;;;;;;;;;;;5092145;28;20024;-72
2022/08/09 01:46:17;;;;;;;20.35;14.05;;;;;;;;;;5091693;28;20308;-72
2022/08/09 01:48:45;;;;;;;23.65;14.48;;;;;;;;;;5092156;28;20359;-72
2022/08/09 01:51:13;;;;;;;19.20;13.93;;;;;;;;;;5091763;28;20470;-72
2022/08/09 01:53:39;;;;;;;20.48;14.00;;;;;;;;;;5092215;28;20020;-72
2022/08/09 01:56:06;;;;;;;20.15;14.07;;;;;;;;;;5091905;28;20040;-72
2022/08/09 01:58:33;;;;;;;25.27;15.80;;;;;;;;;;5093906;28;20027;-71
2022/08/09 02:01:01;;;;;;;22.35;14.60;;;;;;;;;;5095507;28;20028;-72
2022/08/09 02:03:29;;;;;;;21.15;13.45;;;;;;;;;;5095658;28;20470;-72
2022/08/09 02:05:56;;;;;;;21.45;13.98;;;;;;;;;;5095616;28;20030;-72
2022/08/09 02:08:22;;;;;;;20.98;13.88;;;;;;;;;;5095234;28;20024;-72
2022/08/09 02:10:50;;;;;;;19.35;13.35;;;;;;;;;;5095460;28;20506;-72
2022/08/09 02:13:18;;;;;;;21.05;13.13;;;;;;;;;;5095303;28;20026;-72
2022/08/09 02:15:48;;;;;;;20.77;12.65;;;;;;;;;;5094728;28;20038;-72
2022/08/09 02:18:19;;;;;;;19.73;12.70;;;;;;;;;;5095392;28;20064;-72
2022/08/09 02:20:48;;;;;;;21.48;14.32;;;;;;;;;;5095423;28;20024;-72
2022/08/09 02:23:17;;;;;;;23.45;14.50;;;;;;;;;;5095358;28;20024;-72
2022/08/09 02:25:44;;;;;;;20.90;14.15;;;;;;;;;;5095051;28;20024;-72
2022/08/09 02:28:19;;;;;;;24.27;15.20;;;;;;;;;;5094942;28;20031;-72
2022/08/09 02:30:54;;;;;;;22.27;15.30;;;;;;;;;;5095094;28;20034;-72
2022/08/09 02:33:24;;;;;;;22.90;15.90;;;;;;;;;;5094969;28;20024;-72
2022/08/09 02:35:52;;;;;;;24.70;15.88;;;;;;;;;;5094691;28;20040;-72
2022/08/09 02:38:23;;;;;;;23.67;15.98;;;;;;;;;;5094908;28;20077;-72
2022/08/09 02:40:50;;;;;;;23.17;16.17;;;;;;;;;;5094741;28;20491;-72
2022/08/09 02:43:18;;;;;;;24.27;14.93;;;;;;;;;;5094424;28;20024;-72
2022/08/09 02:45:45;;;;;;;27.30;15.10;;;;;;;;;;5094690;28;20389;-73
2022/08/09 02:48:14;;;;;;;22.48;14.77;;;;;;;;;;5094882;28;20016;-72
2022/08/09 02:50:44;;;;;;;23.08;12.98;;;;;;;;;;5094980;28;20035;-72
2022/08/09 02:53:13;;;;;;;22.00;14.30;;;;;;;;;;5094674;28;20045;-72
2022/08/09 02:55:40;;;;;;;20.70;13.50;;;;;;;;;;5094352;28;20483;-72
2022/08/09 02:58:07;;;;;;;20.95;14.18;;;;;;;;;;5094114;28;20039;-72
2022/08/09 03:00:33;;;;;;;19.98;13.40;;;;;;;;;;5094522;28;20026;-72
2022/08/09 03:03:00;;;;;;;21.02;14.35;;;;;;;;;;5094873;28;20024;-72
2022/08/09 03:05:27;;;;;;;24.58;14.63;;;;;;;;;;5094442;28;20028;-72
2022/08/09 03:07:54;;;;;;;21.33;13.65;;;;;;;;;;5094293;28;20482;-72
2022/08/09 03:10:20;;;;;;;19.10;13.00;;;;;;;;;;5093192;28;20016;-72
2022/08/09 03:12:47;;;;;;;18.27;12.50;;;;;;;;;;5093889;28;20035;-72
2022/08/09 03:15:15;;;;;;;18.35;12.00;;;;;;;;;;5094155;28;20039;-72
2022/08/09 03:17:41;;;;;;;17.58;12.30;;;;;;;;;;5094125;28;20432;-72
2022/08/09 03:20:08;;;;;;;21.13;13.63;;;;;;;;;;5094094;28;20020;-72
2022/08/09 03:22:38;;;;;;;22.95;14.38;;;;;;;;;;5094153;28;20398;-72
2022/08/09 03:25:05;;;;;;;24.00;15.95;;;;;;;;;;5093780;28;20028;-72
2022/08/09 03:27:32;;;;;;;26.10;17.20;;;;;;;;;;5093935;28;20026;-72
2022/08/09 03:29:59;;;;;;;22.35;15.75;;;;;;;;;;5094149;28;20024;-71
2022/08/09 03:32:25;;;;;;;23.92;16.10;;;;;;;;;;5093769;28;20024;-72
2022/08/09 03:34:52;;;;;;;23.50;15.30;;;;;;;;;;5093731;28;20032;-72
2022/08/09 03:37:18;;;;;;;19.73;14.27;;;;;;;;;;5093869;28;20043;-72
2022/08/09 03:39:44;;;;;;;23.20;13.85;;;;;;;;;;5093506;28;20089;-72
2022/08/09 03:42:11;;;;;;;22.35;13.00;;;;;;;;;;5093533;28;20032;-72
2022/08/09 03:44:37;;;;;;;17.05;12.65;;;;;;;;;;5093623;28;20020;-72
2022/08/09 03:47:03;;;;;;;22.80;13.93;;;;;;;;;;5093644;28;20077;-72
2022/08/09 03:49:30;;;;;;;19.88;13.68;;;;;;;;;;5093394;28;20024;-72
2022/08/09 03:51:58;;;;;;;23.55;15.25;;;;;;;;;;5093453;28;20020;-72
2022/08/09 03:54:25;;;;;;;21.13;14.90;;;;;;;;;;5093237;28;20024;-72
2022/08/09 03:56:56;;;;;;;24.40;15.07;;;;;;;;;;5092836;28;20036;-72
2022/08/09 03:59:22;;;;;;;23.65;16.27;;;;;;;;;;5093845;28;20016;-72
2022/08/09 04:01:49;;;;;;;24.88;16.98;;;;;;;;;;5093360;28;20028;-72
2022/08/09 04:04:16;;;;;;;24.17;16.23;;;;;;;;;;5093250;28;20472;-72
2022/08/09 04:06:42;;;;;;;28.48;17.65;;;;;;;;;;5093463;28;20028;-72
2022/08/09 04:09:09;;;;;;;26.00;16.67;;;;;;;;;;5093516;28;20032;-72
2022/08/09 04:11:46;;;;;;;26.80;18.25;;;;;;;;;;5092860;28;20024;-72
2022/08/09 04:14:12;;;;;;;29.10;18.88;;;;;;;;;;5093029;28;20028;-72
2022/08/09 04:16:39;;;;;;;27.30;18.95;;;;;;;;;;5093075;28;20040;-71
2022/08/09 04:19:05;;;;;;;32.20;19.70;;;;;;;;;;5092921;28;20030;-72
2022/08/09 04:21:31;;;;;;;35.25;20.08;;;;;;;;;;5092870;28;20500;-72
2022/08/09 04:23:58;;;;;;;30.13;19.52;;;;;;;;;;5093088;28;20024;-72
2022/08/09 04:26:24;;;;;;;26.90;18.73;;;;;;;;;;5091526;28;20474;-72
2022/08/09 04:28:50;;;;;;;30.83;19.05;;;;;;;;;;5093500;28;20034;-72
2022/08/09 04:31:17;;;;;;;31.23;19.15;;;;;;;;;;5092794;28;20027;-72
2022/08/09 04:33:43;;;;;;;31.85;18.52;;;;;;;;;;5091482;28;20497;-72
2022/08/09 04:36:10;;;;;;;27.88;19.10;;;;;;;;;;5090987;28;20516;-71
2022/08/09 04:38:36;;;;;;;28.98;18.83;;;;;;;;;;5091468;28;20060;-72
2022/08/09 04:41:02;;;;;;;36.25;17.85;;;;;;;;;;5092536;28;20062;-72
2022/08/09 04:43:28;;;;;;;63.95;21.02;;;;;;;;;;5092630;28;20020;-72
2022/08/09 04:45:55;;;;;;;89.10;20.60;;;;;;;;;;5092759;28;20038;-72
2022/08/09 04:48:21;;;;;;;39.50;18.67;;;;;;;;;;5092301;28;20039;-72
2022/08/09 04:50:47;;;;;;;39.17;21.05;;;;;;;;;;5092516;28;20030;-72
2022/08/09 04:53:14;;;;;;;39.22;20.15;;;;;;;;;;5092425;28;20028;-72
2022/08/09 04:55:41;;;;;;;35.53;19.40;;;;;;;;;;5092361;28;20096;-72
2022/08/09 04:58:07;;;;;;;35.28;18.85;;;;;;;;;;5092384;28;20031;-72
2022/08/09 05:00:34;;;;;;;34.97;20.92;;;;;;;;;;5092605;28;20084;-71
2022/08/09 05:03:04;;;;;;;44.80;21.75;;;;;;;;;;5092131;28;20018;-72
2022/08/09 05:05:30;;;;;;;38.35;20.80;;;;;;;;;;5092422;28;20503;-72
2022/08/09 05:07:57;;;;;;;39.60;20.52;;;;;;;;;;5092056;28;20505;-72
2022/08/09 05:10:23;;;;;;;47.33;22.23;;;;;;;;;;5091145;28;20012;-72
2022/08/09 05:12:50;;;;;;;43.53;22.70;;;;;;;;;;5092538;28;20026;-72
2022/08/09 05:15:16;;;;;;;39.17;21.30;;;;;;;;;;5092134;28;20028;-72
2022/08/09 05:17:43;;;;;;;34.13;18.02;;;;;;;;;;5092060;28;20096;-72
2022/08/09 05:20:09;;;;;;;30.90;18.58;;;;;;;;;;5092119;28;20043;-72
2022/08/09 05:22:36;;;;;;;32.67;19.45;;;;;;;;;;5092087;28;20034;-73
2022/08/09 05:25:03;;;;;;;34.05;20.67;;;;;;;;;;5092065;28;20020;-72
2022/08/09 05:27:30;;;;;;;35.17;20.42;;;;;;;;;;5092185;28;20028;-72
2022/08/09 05:29:56;;;;;;;31.35;18.67;;;;;;;;;;5092241;28;20028;-72
2022/08/09 05:32:22;;;;;;;31.00;17.40;;;;;;;;;;5092086;28;20370;-72
2022/08/09 05:34:49;;;;;;;26.77;14.30;;;;;;;;;;5095813;28;20494;-72
2022/08/09 05:37:15;;;;;;;26.02;15.07;;;;;;;;;;5095637;28;20036;-72
2022/08/09 05:39:41;;;;;;;18.75;10.27;;;;;;;;;;5094557;28;20040;-72
2022/08/09 05:42:08;;;;;;;18.23;10.40;;;;;;;;;;5096300;28;20028;-72
2022/08/09 05:44:34;;;;;;;17.40;10.35;;;;;;;;;;5094636;28;20032;-72
2022/08/09 05:47:01;;;;;;;29.90;10.13;;;;;;;;;;5095877;28;20024;-72
2022/08/09 05:49:27;;;;;;;19.48;9.18;;;;;;;;;;5095957;28;20035;-72
2022/08/09 05:51:54;;;;;;;15.43;9.43;;;;;;;;;;5095384;28;20427;-72
2022/08/09 05:54:20;;;;;;;21.38;9.20;;;;;;;;;;5095757;28;20022;-72
2022/08/09 05:56:46;;;;;;;22.25;9.20;;;;;;;;;;5094617;28;20046;-71
2022/08/09 05:59:12;;;;;;;22.10;9.15;;;;;;;;;;5095662;28;20024;-72
2022/08/09 06:01:39;;;;;;;19.27;9.43;;;;;;;;;;5095825;28;20036;-72
2022/08/09 06:04:05;;;;;;;14.80;9.02;;;;;;;;;;5095484;28;20012;-72
2022/08/09 06:06:32;;;;;;;20.88;9.68;;;;;;;;;;5093989;28;20036;-72
2022/08/09 06:08:58;;;;;;;24.35;9.18;;;;;;;;;;5095693;28;20016;-72
2022/08/09 06:11:24;;;;;;;20.38;10.02;;;;;;;;;;5095661;28;20031;-72
2022/08/09 06:13:51;;;;;;;14.57;9.13;;;;;;;;;;5095212;28;20024;-72
2022/08/09 06:16:17;;;;;;;35.83;10.23;;;;;;;;;;5095419;28;20032;-72
2022/08/09 06:18:43;;;;;;;22.98;10.63;;;;;;;;;;5095132;28;20030;-72
2022/08/09 06:21:10;;;;;;;29.25;10.60;;;;;;;;;;5095084;28;20043;-72
2022/08/09 06:23:36;;;;;;;16.88;10.38;;;;;;;;;;5095124;28;20020;-72
2022/08/09 06:26:03;;;;;;;34.72;10.45;;;;;;;;;;5095217;28;20032;-71
2022/08/09 06:28:29;;;;;;;21.63;9.27;;;;;;;;;;5091802;28;20024;-71
2022/08/09 06:30:55;;;;;;;18.15;9.15;;;;;;;;;;5092524;28;20035;-70
2022/08/09 06:33:22;;;;;;;23.83;10.00;;;;;;;;;;5094208;28;20028;-71
2022/08/09 06:35:48;;;;;;;26.80;9.52;;;;;;;;;;5093511;28;20032;-72
2022/08/09 06:38:14;;;;;;;132.30;15.52;;;;;;;;;;5094377;28;20049;-72
2022/08/09 06:40:41;;;;;;;46.80;11.77;;;;;;;;;;5094329;28;20457;-71
2022/08/09 06:43:07;;;;;;;26.67;9.88;;;;;;;;;;5093164;28;20031;-69
2022/08/09 06:45:34;;;;;;;28.95;9.32;;;;;;;;;;5093075;28;20118;-72
2022/08/09 06:48:00;;;;;;;27.02;8.73;;;;;;;;;;5095308;28;20020;-71
2022/08/09 06:50:26;;;;;;;14.13;7.68;;;;;;;;;;5113422;28;20061;-71
2022/08/09 06:52:53;;;;;;;15.13;7.65;;;;;;;;;;5103150;28;20032;-71
2022/08/09 06:55:20;;;;;;;10.68;6.88;;;;;;;;;;5093829;28;20467;-71
2022/08/09 06:57:46;;;;;;;12.55;7.22;;;;;;;;;;5093745;28;20024;-71
2022/08/09 07:00:13;;;;;;;11.60;6.90;;;;;;;;;;5093104;28;20389;-71
2022/08/09 07:02:39;;;;;;;14.25;6.90;;;;;;;;;;5090709;28;20034;-71
2022/08/09 07:05:06;;;;;;;9.07;5.43;;;;;;;;;;5092781;28;20028;-70
2022/08/09 07:07:33;;;;;;;100.10;8.88;;;;;;;;;;5092433;28;20069;-71
2022/08/09 07:09:59;;;;;;;8.93;5.80;;;;;;;;;;5093295;28;20028;-71
2022/08/09 07:12:25;;;;;;;14.13;6.35;;;;;;;;;;5093674;28;20023;-71
2022/08/09 07:14:52;;;;;;;6.63;4.65;;;;;;;;;;5092310;28;20036;-71
2022/08/09 07:17:21;;;;;;;8.68;5.32;;;;;;;;;;5092794;28;20073;-71
2022/08/09 07:19:47;;;;;;;13.27;6.53;;;;;;;;;;5092133;28;20496;-71
2022/08/09 07:22:13;;;;;;;10.70;5.95;;;;;;;;;;5091107;28;20480;-71
2022/08/09 07:24:40;;;;;;;11.25;6.05;;;;;;;;;;5092384;28;20028;-71
2022/08/09 07:27:07;;;;;;;9.50;5.55;;;;;;;;;;5093355;28;20027;-71
2022/08/09 07:29:34;;;;;;;63.10;9.13;;;;;;;;;;5092862;28;20046;-71
2022/08/09 07:32:02;;;;;;;10.63;6.20;;;;;;;;;;5091015;28;20070;-70
2022/08/09 07:34:29;;;;;;;17.67;7.03;;;;;;;;;;5092114;28;20027;-70
2022/08/09 07:36:55;;;;;;;18.60;7.25;;;;;;;;;;5092090;28;20038;-70
2022/08/09 07:39:22;;;;;;;14.48;7.68;;;;;;;;;;5090551;28;20044;-71
2022/08/09 07:41:48;;;;;;;22.15;7.78;;;;;;;;;;5091460;28;20030;-70
2022/08/09 07:44:15;;;;;;;15.38;7.15;;;;;;;;;;5091793;28;20036;-71
2022/08/09 07:46:41;;;;;;;14.38;6.82;;;;;;;;;;5090064;28;20405;-70
2022/08/09 07:49:08;;;;;;;10.88;7.30;;;;;;;;;;5091837;28;20030;-70
2022/08/09 07:51:34;;;;;;;23.17;7.03;;;;;;;;;;5091890;28;20057;-70
2022/08/09 07:54:01;;;;;;;80.22;11.35;;;;;;;;;;5091870;28;20032;-71
2022/08/09 07:56:27;;;;;;;13.68;6.97;;;;;;;;;;5091492;28;20393;-71
2022/08/09 07:58:54;;;;;;;21.80;8.75;;;;;;;;;;5091927;28;20025;-71
2022/08/09 08:01:20;;;;;;;17.77;7.95;;;;;;;;;;5092219;28;20042;-70
2022/08/09 08:03:47;;;;;;;20.05;9.00;;;;;;;;;;5091071;28;20381;-70
2022/08/09 08:06:13;;;;;;;23.05;9.50;;;;;;;;;;5091641;28;20034;-71
2022/08/09 08:08:39;;;;;;;20.27;9.30;;;;;;;;;;5089879;28;20016;-70
2022/08/09 08:11:06;;;;;;;24.23;14.05;;;;;;;;;;5091316;28;20444;-71
2022/08/09 08:13:32;;;;;;;19.58;11.80;;;;;;;;;;5091006;28;20471;-71
2022/08/09 08:15:58;;;;;;;25.52;15.40;;;;;;;;;;5091329;28;20032;-71
2022/08/09 08:18:25;;;;;;;26.95;14.10;;;;;;;;;;5091715;28;20444;-71
2022/08/09 08:20:51;;;;;;;26.15;13.65;;;;;;;;;;5091388;28;20014;-71
2022/08/09 08:23:19;;;;;;;42.65;17.17;;;;;;;;;;5091363;28;20038;-71
2022/08/09 08:25:46;;;;;;;36.67;23.02;;;;;;;;;;5090928;28;20016;-71
2022/08/09 08:28:14;;;;;;;41.47;28.02;;;;;;;;;;5091149;28;20282;-71
2022/08/09 08:30:40;;;;;;;43.75;24.45;;;;;;;;;;5091533;28;20012;-71
2022/08/09 08:33:06;;;;;;;34.85;24.70;;;;;;;;;;5090833;28;20020;-71
2022/08/09 08:35:34;;;;;;;39.17;24.15;;;;;;;;;;5091045;28;20036;-71
2022/08/09 08:38:00;;;;;;;42.33;24.35;;;;;;;;;;5090099;28;20036;-71
2022/08/09 08:40:27;;;;;;;40.55;23.00;;;;;;;;;;5091084;28;20052;-71
2022/08/09 08:42:53;;;;;;;46.03;25.55;;;;;;;;;;5091016;28;20036;-71
2022/08/09 08:45:28;;;;;;;37.80;25.23;;;;;;;;;;5090847;28;20035;-70
2022/08/09 08:47:56;;;;;;;39.08;25.20;;;;;;;;;;5091294;28;20047;-71
2022/08/09 08:50:23;;;;;;;46.13;27.30;;;;;;;;;;5090904;28;20024;-71
2022/08/09 08:52:51;;;;;;;49.03;31.02;;;;;;;;;;5086154;28;20501;-71
2022/08/09 08:55:18;;;;;;;51.20;35.40;;;;;;;;;;5089829;28;20020;-71
2022/08/09 08:57:45;;;;;;;72.30;38.08;;;;;;;;;;5090127;28;20042;-70
2022/08/09 09:00:11;;;;;;;62.05;41.33;;;;;;;;;;5089633;28;20036;-71
2022/08/09 09:02:38;;;;;;;61.38;40.28;;;;;;;;;;5090566;28;20084;-69
2022/08/09 09:05:05;;;;;;;63.13;41.15;;;;;;;;;;5090920;28;20105;-71
2022/08/09 09:07:33;;;;;;;70.80;42.00;;;;;;;;;;5090030;28;20024;-69
2022/08/09 09:10:00;;;;;;;76.63;46.45;;;;;;;;;;5090692;28;20394;-69
2022/08/09 09:12:29;;;;;;;58.75;39.58;;;;;;;;;;5090467;28;20027;-69
2022/08/09 09:14:56;;;;;;;58.65;40.17;;;;;;;;;;5089761;28;20024;-69
2022/08/09 09:17:23;;;;;;;63.72;42.22;;;;;;;;;;5090860;28;20387;-71
2022/08/09 09:19:51;;;;;;;103.95;43.80;;;;;;;;;;5090677;28;20020;-70
2022/08/09 09:22:18;;;;;;;70.05;41.97;;;;;;;;;;5090381;28;20385;-69
2022/08/09 09:24:44;;;;;;;78.47;44.63;;;;;;;;;;5090031;28;20031;-70
2022/08/09 09:27:12;;;;;;;102.85;50.30;;;;;;;;;;5102259;28;20213;-71
2022/08/09 09:29:39;;;;;;;69.57;44.75;;;;;;;;;;5110551;28;20027;-71
2022/08/09 09:32:06;;;;;;;70.85;42.60;;;;;;;;;;5110897;28;20477;-71
2022/08/09 09:34:33;;;;;;;85.18;56.13;;;;;;;;;;5104742;28;20016;-71
2022/08/09 09:37:00;;;;;;;70.13;51.03;;;;;;;;;;5090379;28;20028;-71
2022/08/09 09:39:28;;;;;;;64.78;45.45;;;;;;;;;;5090461;28;20085;-71
2022/08/09 09:41:54;;;;;;;53.17;36.17;;;;;;;;;;5089042;28;20038;-70
2022/08/09 09:44:33;;;;;;;84.95;60.40;;;;;;;;;;5089916;28;20028;-71
2022/08/09 09:47:05;;;;;;;81.47;55.58;;;;;;;;;;5090505;28;20029;-71
2022/08/09 09:49:31;;;;;;;46.35;30.67;;;;;;;;;;5089766;28;20031;-71
2022/08/09 09:52:05;;;;;;;49.10;34.90;;;;;;;;;;5090408;28;20108;-71
2022/08/09 09:54:39;;;;;;;40.25;29.35;;;;;;;;;;5090249;28;20028;-71
2022/08/09 09:57:14;;;;;;;41.53;28.08;;;;;;;;;;5090300;28;20031;-71
2022/08/09 09:59:40;;;;;;;31.50;22.83;;;;;;;;;;5089873;28;20386;-71
2022/08/09 10:02:07;;;;;;;20.40;13.88;;;;;;;;;;5090280;28;20030;-71
2022/08/09 10:04:34;;;;;;;17.13;11.80;;;;;;;;;;5090048;28;20100;-71
2022/08/09 10:07:00;;;;;;;13.93;9.63;;;;;;;;;;5090247;28;20024;-70
2022/08/09 10:09:27;;;;;;;13.10;9.70;;;;;;;;;;5090568;28;20027;-71
2022/08/09 10:11:57;;;;;;;16.25;11.40;;;;;;;;;;5087628;28;20032;-71
2022/08/09 10:14:30;;;;;;;23.60;15.32;;;;;;;;;;5087169;28;20022;-71
2022/08/09 10:16:56;;;;;;;16.15;9.27;;;;;;;;;;5090114;28;20040;-71
2022/08/09 10:19:34;;;;;;;21.15;14.05;;;;;;;;;;5091870;28;20030;-70
2022/08/09 10:22:01;;;;;;;14.90;9.27;;;;;;;;;;5094015;28;20031;-70
2022/08/09 10:24:27;;;;;;;12.63;10.10;;;;;;;;;;5093198;28;20016;-70
2022/08/09 10:26:55;;;;;;;14.13;8.75;;;;;;;;;;5093194;28;20547;-71
2022/08/09 10:29:22;;;;;;;9.80;8.27;;;;;;;;;;5093705;28;20022;-71
2022/08/09 10:31:48;;;;;;;11.55;8.15;;;;;;;;;;5092080;28;20016;-71
2022/08/09 10:34:15;;;;;;;13.50;8.10;;;;;;;;;;5092626;28;20009;-71
2022/08/09 10:36:42;;;;;;;10.90;7.93;;;;;;;;;;5093497;28;20032;-71
2022/08/09 10:39:09;;;;;;;16.85;8.25;;;;;;;;;;5092085;28;20031;-71
2022/08/09 10:41:35;;;;;;;14.82;8.10;;;;;;;;;;5092992;28;20522;-75
2022/08/09 10:44:02;;;;;;;22.95;8.90;;;;;;;;;;5093507;28;20024;-76
2022/08/09 10:46:38;;;;;;;12.50;7.97;;;;;;;;;;5093375;28;20032;-77
2022/08/09 10:49:07;;;;;;;55.50;11.90;;;;;;;;;;5093200;28;20382;-78
2022/08/09 10:51:49;;;;;;;26.33;8.83;;;;;;;;;;5092974;28;20551;-77
2022/08/09 10:54:21;;;;;;;14.98;6.85;;;;;;;;;;5092956;28;20073;-80
2022/08/09 10:57:04;;;;;;;9.10;6.75;;;;;;;;;;5092758;28;20044;-72
2022/08/09 10:59:31;;;;;;;8.95;6.18;;;;;;;;;;5092860;28;20030;-72
2022/08/09 11:01:58;;;;;;;9.75;6.68;;;;;;;;;;5093003;28;20031;-76
2022/08/09 11:04:25;;;;;;;11.55;6.95;;;;;;;;;;5092696;28;20019;-72
2022/08/09 11:06:58;;;;;;;9.80;5.97;;;;;;;;;;5092597;28;20026;-75
2022/08/09 11:09:42;;;;;;;9.52;6.13;;;;;;;;;;5091933;28;20028;-73
2022/08/09 11:12:16;;;;;;;9.82;5.97;;;;;;;;;;5092354;28;20032;-76
2022/08/09 11:14:53;;;;;;;8.15;5.75;;;;;;;;;;5093019;28;20036;-74
2022/08/09 11:17:19;;;;;;;8.65;6.07;;;;;;;;;;5093113;28;20024;-74
2022/08/09 11:19:58;;;;;;;11.02;6.18;;;;;;;;;;5093160;28;20024;-75
2022/08/09 11:22:47;;;;;;;8.00;5.38;;;;;;;;;;5090309;28;20098;-75
2022/08/09 11:25:17;;;;;;;5.93;5.33;;;;;;;;;;5078252;28;20044;-74
2022/08/09 11:27:43;;;;;;;7.55;5.15;;;;;;;;;;5092258;28;20038;-75
2022/08/09 11:30:11;;;;;;;9.88;4.78;;;;;;;;;;5092266;28;20032;-74
2022/08/09 11:32:45;;;;;;;10.10;5.60;;;;;;;;;;5091938;28;20034;-75
2022/08/09 11:35:15;;;;;;;22.15;6.70;;;;;;;;;;5092635;28;20027;-75
2022/08/09 11:37:41;;;;;;;8.65;4.53;;;;;;;;;;5092029;28;20077;-75
2022/08/09 11:40:09;;;;;;;10.32;4.32;;;;;;;;;;5092000;28;20058;-75
2022/08/09 11:42:47;;;;;;;6.25;4.65;;;;;;;;;;5092084;28;20036;-74
2022/08/09 11:45:28;;;;;;;5.15;4.35;;;;;;;;;;5092153;28;20028;-75
2022/08/09 11:47:59;;;;;;;7.15;4.90;;;;;;;;;;5092454;28;20031;-75
2022/08/09 11:50:26;;;;;;;7.20;4.80;;;;;;;;;;5090642;28;20028;-75
2022/08/09 11:52:59;;;;;;;36.92;7.10;;;;;;;;;;5092121;28;20032;-75
2022/08/09 11:55:38;;;;;;;9.48;4.80;;;;;;;;;;5091970;28;20024;-75
2022/08/09 11:58:29;;;;;;;7.75;4.35;;;;;;;;;;5092422;28;20028;-74
2022/08/09 12:01:00;;;;;;;6.22;4.20;;;;;;;;;;5083521;28;20040;-74
2022/08/09 12:03:27;;;;;;;5.10;3.95;;;;;;;;;;5104723;28;20019;-74
2022/08/09 12:05:57;;;;;;;6.53;4.13;;;;;;;;;;5110837;28;20028;-74
2022/08/09 12:08:24;;;;;;;7.53;3.63;;;;;;;;;;5097603;28;20027;-74
2022/08/09 12:10:52;;;;;;;6.15;3.50;;;;;;;;;;5091340;28;20436;-75
2022/08/09 12:13:47;;;;;;;40.42;6.40;;;;;;;;;;5091672;28;20402;-74
2022/08/09 12:16:15;;;;;;;6.88;4.20;;;;;;;;;;5074642;28;20051;-74
2022/08/09 12:18:43;;;;;;;4.95;4.05;;;;;;;;;;5092036;28;20016;-74
2022/08/09 12:21:10;;;;;;;4.57;3.30;;;;;;;;;;5091741;28;20494;-74
2022/08/09 12:23:44;;;;;;;6.07;3.63;;;;;;;;;;5091706;28;20030;-75
2022/08/09 12:26:11;;;;;;;5.22;3.90;;;;;;;;;;5091669;28;20027;-75
2022/08/09 12:28:41;;;;;;;5.30;3.70;;;;;;;;;;5090548;28;20486;-74
2022/08/09 12:31:20;;;;;;;6.80;3.60;;;;;;;;;;5091201;28;20024;-75
2022/08/09 12:33:48;;;;;;;5.22;3.70;;;;;;;;;;5091886;28;20021;-74
2022/08/09 12:36:15;;;;;;;3.95;3.50;;;;;;;;;;5091200;28;20034;-75
2022/08/09 12:38:41;;;;;;;4.60;3.53;;;;;;;;;;5091279;28;20032;-75
2022/08/09 12:41:07;;;;;;;3.88;3.20;;;;;;;;;;5091469;28;20044;-75
2022/08/09 12:43:34;;;;;;;6.28;3.85;;;;;;;;;;5091106;28;20576;-75
2022/08/09 12:46:00;;;;;;;4.00;3.60;;;;;;;;;;5091520;28;20020;-75
2022/08/09 12:48:29;;;;;;;4.50;3.50;;;;;;;;;;5091332;28;20490;-74
2022/08/09 12:50:56;;;;;;;6.38;3.75;;;;;;;;;;5091340;28;20020;-74
2022/08/09 12:53:30;;;;;;;4.20;3.80;;;;;;;;;;5089658;28;20494;-74
2022/08/09 12:56:13;;;;;;;9.18;4.00;;;;;;;;;;5091340;28;20040;-74
2022/08/09 12:58:41;;;;;;;6.93;4.00;;;;;;;;;;5091160;28;20494;-74
2022/08/09 13:01:20;;;;;;;5.82;3.80;;;;;;;;;;5091372;28;20020;-73
2022/08/09 13:03:55;;;;;;;6.07;4.03;;;;;;;;;;5090898;28;20013;-75
2022/08/09 13:06:25;;;;;;;6.00;3.60;;;;;;;;;;5090921;28;20040;-75
2022/08/09 13:08:59;;;;;;;4.00;3.53;;;;;;;;;;5090006;28;20027;-74
2022/08/09 13:11:29;;;;;;;4.00;3.60;;;;;;;;;;5091283;28;20028;-74
2022/08/09 13:13:56;;;;;;;6.95;4.13;;;;;;;;;;5091205;28;20040;-75
2022/08/09 13:16:22;;;;;;;6.78;3.65;;;;;;;;;;5090915;28;20404;-74
2022/08/09 13:18:50;;;;;;;7.47;3.70;;;;;;;;;;5090893;28;20486;-74
2022/08/09 13:21:18;;;;;;;6.38;3.58;;;;;;;;;;5091021;28;20028;-75
2022/08/09 13:23:45;;;;;;;5.00;3.80;;;;;;;;;;5090989;28;20034;-75
2022/08/09 13:26:11;;;;;;;3.92;3.53;;;;;;;;;;5091012;28;20035;-75
2022/08/09 13:28:37;;;;;;;6.50;3.83;;;;;;;;;;5091243;28;20038;-74
2022/08/09 13:31:08;;;;;;;4.47;3.58;;;;;;;;;;5090852;28;20020;-75
2022/08/09 13:33:35;;;;;;;4.55;3.33;;;;;;;;;;5090638;28;20486;-75
2022/08/09 13:36:01;;;;;;;5.78;3.75;;;;;;;;;;5090309;28;20054;-75
2022/08/09 13:38:28;;;;;;;4.05;3.63;;;;;;;;;;5090145;28;20039;-75
2022/08/09 13:41:00;;;;;;;4.28;3.75;;;;;;;;;;5090553;28;20534;-75
2022/08/09 13:43:28;;;;;;;6.43;4.03;;;;;;;;;;5090756;28;20034;-75
2022/08/09 13:45:54;;;;;;;4.97;3.67;;;;;;;;;;5090157;28;20028;-75
2022/08/09 13:48:21;;;;;;;4.90;3.35;;;;;;;;;;5090717;28;20028;-75
2022/08/09 13:50:47;;;;;;;6.38;3.65;;;;;;;;;;5089094;28;20028;-75
2022/08/09 13:53:15;;;;;;;4.80;3.60;;;;;;;;;;5090490;28;20409;-75
2022/08/09 13:55:41;;;;;;;4.20;3.38;;;;;;;;;;5094448;28;20405;-75
2022/08/09 13:58:08;;;;;;;3.80;3.40;;;;;;;;;;5094654;28;20038;-75
2022/08/09 14:00:37;;;;;;;6.70;3.50;;;;;;;;;;5095110;28;20030;-75
2022/08/09 14:03:03;;;;;;;9.25;3.20;;;;;;;;;;5095280;28;20026;-74
2022/08/09 14:05:30;;;;;;;4.97;3.42;;;;;;;;;;5095132;28;20035;-75
2022/08/09 14:07:56;;;;;;;5.70;3.30;;;;;;;;;;5095432;28;20034;-75
2022/08/09 14:10:22;;;;;;;4.03;3.35;;;;;;;;;;5094086;28;20069;-75
2022/08/09 14:12:49;;;;;;;6.63;3.20;;;;;;;;;;5095333;28;20020;-75
2022/08/09 14:15:15;;;;;;;3.35;3.05;;;;;;;;;;5094551;28;20024;-75
2022/08/09 14:17:41;;;;;;;3.78;3.35;;;;;;;;;;5095156;28;20050;-75
2022/08/09 14:20:08;;;;;;;4.97;3.47;;;;;;;;;;5094948;28;20030;-75
2022/08/09 14:22:34;;;;;;;7.85;3.78;;;;;;;;;;5095096;28;20028;-75
2022/08/09 14:25:01;;;;;;;5.65;3.47;;;;;;;;;;5094757;28;20028;-74
2022/08/09 14:27:27;;;;;;;5.00;3.75;;;;;;;;;;5095287;28;20020;-75
2022/08/09 14:29:53;;;;;;;5.22;3.90;;;;;;;;;;5095121;28;20035;-75
2022/08/09 14:32:20;;;;;;;6.70;3.70;;;;;;;;;;5093147;28;20040;-75
2022/08/09 14:34:46;;;;;;;3.88;3.47;;;;;;;;;;5094386;28;20028;-74